Zionsville, Indiana
Current Conditions -  °F | °C
As of 10:15 PM on Monday 20 Oct 2014 (Local Time) from KTYQ Reporting Station
Scattered Clouds Scattered Clouds  
Wind Chill: 55°   Ceiling: Unl
Heat Index: 55°   Visibility: 10mi
Dew Point: 46°   Wind: 10mph
Humidity: 72%   Direction: 340°NNW
Pressure: 29.95"   Gusts: NA
Location:  39.95°N, 86.26°W
Report Text: KTYQ 210215Z AUTO 34009KT 10SM SCT075 13/08 A2995 RMK AO2 T01260077
Loading
Personal Weather Stations






























Interactive Weather Map
Tropical Storm Tracking
New forecast layout! Learn more

10-Day Weather Forecast

Advertisements
Track Severe Weather on mobile